Time;durP1;ratioP1;P1;durP2;ratioP2;P2;SDS_P1;SDS_P2;PMS_P1;PMS_P2;Temp;Humidity;BMP_temperature;BMP_pressure;BME280_temperature;BME280_humidity;BME280_pressure;Samples;Min_cycle;Max_cycle;Signal;HPM_P1;HPM_P2
2023/08/21 00:00:04;;;;;;;3.10;2.08;;;28.50;56.50;;;;;;5121328;27;20054;-69
2023/08/21 00:02:30;;;;;;;3.05;2.22;;;28.50;56.50;;;;;;5120386;27;20076;-70
2023/08/21 00:04:56;;;;;;;3.30;2.35;;;28.50;56.50;;;;;;5121283;27;20411;-70
2023/08/21 00:07:21;;;;;;;3.35;2.33;;;28.50;56.50;;;;;;5121088;27;20156;-70
2023/08/21 00:09:47;;;;;;;3.47;2.60;;;28.50;56.50;;;;;;5119321;27;20078;-70
2023/08/21 00:12:13;;;;;;;3.03;2.33;;;28.50;56.50;;;;;;5122092;27;20051;-69
2023/08/21 00:14:38;;;;;;;3.28;2.40;;;28.50;56.50;;;;;;5120280;27;20030;-69
2023/08/21 00:17:04;;;;;;;3.30;2.40;;;28.50;56.50;;;;;;5122077;27;20477;-61
2023/08/21 00:19:30;;;;;;;2.65;2.05;;;28.50;56.50;;;;;;5122132;27;20027;-71
2023/08/21 00:21:56;;;;;;;3.00;2.10;;;28.50;56.50;;;;;;5121838;27;20035;-70
2023/08/21 00:24:21;;;;;;;2.70;2.10;;;28.50;56.50;;;;;;5121458;27;20031;-71
2023/08/21 00:26:47;;;;;;;2.92;2.20;;;28.50;56.50;;;;;;5121485;27;20429;-70
2023/08/21 00:29:13;;;;;;;2.95;2.08;;;28.50;56.50;;;;;;5121564;27;20111;-69
2023/08/21 00:31:38;;;;;;;3.20;2.42;;;28.50;56.50;;;;;;5122796;27;20034;-71
2023/08/21 00:34:04;;;;;;;3.03;2.40;;;28.50;56.50;;;;;;5120622;27;20035;-70
2023/08/21 00:36:29;;;;;;;3.58;2.42;;;28.50;56.50;;;;;;5119884;27;20605;-70
2023/08/21 00:38:55;;;;;;;3.05;2.00;;;28.50;56.50;;;;;;5121358;27;20034;-71
2023/08/21 00:41:21;;;;;;;2.88;2.28;;;28.40;56.40;;;;;;5119948;27;20521;-70
2023/08/21 00:43:46;;;;;;;3.10;2.30;;;28.50;56.50;;;;;;5121138;27;20031;-70
2023/08/21 00:46:13;;;;;;;3.13;2.35;;;28.50;57.00;;;;;;5109662;27;20081;-70
2023/08/21 00:48:39;;;;;;;2.83;2.08;;;28.50;56.50;;;;;;5119090;27;20027;-70
2023/08/21 00:51:06;;;;;;;3.20;2.28;;;28.50;56.50;;;;;;5118856;27;20118;-70
2023/08/21 00:53:32;;;;;;;2.92;2.30;;;28.50;56.50;;;;;;5120779;27;20027;-70
2023/08/21 00:55:58;;;;;;;2.92;2.10;;;28.40;56.40;;;;;;5120283;27;20030;-70
2023/08/21 00:58:24;;;;;;;2.55;2.00;;;28.40;56.40;;;;;;5121243;27;20142;-71
2023/08/21 01:00:51;;;;;;;3.03;2.30;;;28.50;56.50;;;;;;5119920;27;20558;-70
2023/08/21 01:03:18;;;;;;;2.92;2.10;;;28.50;56.50;;;;;;5119328;27;20023;-70
2023/08/21 01:05:43;;;;;;;3.15;2.17;;;28.50;56.50;;;;;;5118811;27;20119;-70
2023/08/21 01:08:16;;;;;;;2.97;2.20;;;28.50;56.50;;;;;;5120898;27;20055;-70
2023/08/21 01:11:06;;;;;;;3.20;2.22;;;28.40;56.50;;;;;;5121315;27;20690;-69
2023/08/21 01:13:54;;;;;;;3.15;2.22;;;28.40;56.50;;;;;;5121076;27;20032;-70
2023/08/21 01:16:21;;;;;;;3.73;2.50;;;28.40;56.40;;;;;;5119252;27;20024;-70
2023/08/21 01:18:48;;;;;;;3.42;2.40;;;28.50;56.50;;;;;;5120081;27;20265;-69
2023/08/21 01:21:15;;;;;;;2.90;2.25;;;28.40;56.50;;;;;;5120067;27;20490;-70
2023/08/21 01:23:43;;;;;;;3.25;2.50;;;28.40;56.50;;;;;;5120519;27;20024;-70
2023/08/21 01:26:09;;;;;;;3.55;2.30;;;28.40;56.40;;;;;;5120534;27;20023;-71
2023/08/21 01:28:35;;;;;;;3.00;2.40;;;28.40;56.40;;;;;;5119620;27;20031;-62
2023/08/21 01:31:11;;;;;;;2.80;2.10;;;28.40;56.50;;;;;;5119166;27;20035;-63
2023/08/21 01:33:47;;;;;;;3.00;2.28;;;28.40;56.40;;;;;;5118227;27;20475;-63
2023/08/21 01:36:14;;;;;;;2.97;2.17;;;28.40;56.40;;;;;;5120031;27;20119;-62
2023/08/21 01:38:41;;;;;;;3.08;2.20;;;28.40;56.40;;;;;;5119458;27;20019;-64
2023/08/21 01:41:06;;;;;;;2.80;2.10;;;28.40;56.40;;;;;;5107837;27;20095;-63
2023/08/21 01:43:32;;;;;;;2.42;1.98;;;28.40;56.40;;;;;;5119381;27;20114;-64
2023/08/21 01:45:58;;;;;;;2.53;2.00;;;28.40;56.40;;;;;;5120168;27;20122;-63
2023/08/21 01:48:23;;;;;;;3.13;2.15;;;28.40;56.40;;;;;;5117266;27;20382;-68
2023/08/21 01:50:49;;;;;;;2.70;2.08;;;28.40;56.40;;;;;;5120619;27;20455;-68
2023/08/21 01:53:15;;;;;;;2.83;2.22;;;28.40;56.40;;;;;;5120598;27;20023;-68
2023/08/21 01:55:40;;;;;;;2.92;2.20;;;28.40;56.40;;;;;;5120990;27;20345;-69
2023/08/21 01:58:06;;;;;;;2.90;2.22;;;28.40;56.40;;;;;;5118916;27;20027;-69
2023/08/21 02:00:31;;;;;;;3.00;2.22;;;28.40;56.40;;;;;;5118209;27;20038;-68
2023/08/21 02:02:57;;;;;;;3.13;2.25;;;28.40;56.40;;;;;;5117415;27;20027;-68
2023/08/21 02:05:23;;;;;;;2.50;1.88;;;28.40;56.40;;;;;;5117795;27;20034;-67
2023/08/21 02:07:48;;;;;;;2.53;1.92;;;28.40;56.40;;;;;;5119689;27;21030;-68
2023/08/21 02:10:14;;;;;;;2.70;2.10;;;28.40;56.40;;;;;;5118573;27;20031;-67
2023/08/21 02:12:39;;;;;;;2.78;2.10;;;28.40;56.50;;;;;;5119997;27;20023;-68
2023/08/21 02:15:06;;;;;;;2.70;2.10;;;28.40;56.40;;;;;;5118905;27;20031;-69
2023/08/21 02:17:32;;;;;;;2.75;2.00;;;28.40;56.40;;;;;;5117584;27;20494;-67
2023/08/21 02:19:57;;;;;;;2.90;2.28;;;28.40;56.40;;;;;;5117048;27;20023;-69
2023/08/21 02:22:23;;;;;;;2.58;1.90;;;28.40;56.50;;;;;;5118742;27;20028;-68
2023/08/21 02:24:49;;;;;;;2.45;1.80;;;28.40;56.40;;;;;;5120260;27;20042;-68
2023/08/21 02:27:14;;;;;;;2.67;1.95;;;28.40;56.50;;;;;;5117794;27;20172;-68
2023/08/21 02:29:40;;;;;;;2.28;1.80;;;28.40;56.40;;;;;;5116140;27;20038;-69
2023/08/21 02:32:06;;;;;;;2.88;2.03;;;28.40;56.40;;;;;;5118617;27;20027;-68
2023/08/21 02:34:31;;;;;;;3.13;2.10;;;28.40;56.50;;;;;;5118469;27;20080;-70
2023/08/21 02:36:58;;;;;;;2.53;1.90;;;28.40;56.40;;;;;;5117710;27;20879;-68
2023/08/21 02:39:23;;;;;;;2.85;2.10;;;28.40;56.40;;;;;;5120967;27;20378;-70
2023/08/21 02:41:49;;;;;;;2.63;2.03;;;28.40;56.50;;;;;;5118118;27;20035;-70
2023/08/21 02:44:15;;;;;;;2.72;2.03;;;28.40;56.40;;;;;;5118960;27;20030;-70
2023/08/21 02:46:40;;;;;;;2.60;1.90;;;28.40;56.40;;;;;;5121019;27;20118;-70
2023/08/21 02:49:06;;;;;;;2.80;2.25;;;28.40;56.40;;;;;;5118504;27;20103;-70
2023/08/21 02:51:32;;;;;;;2.60;1.98;;;28.40;56.40;;;;;;5118584;27;20111;-70
2023/08/21 02:53:57;;;;;;;2.50;1.92;;;28.40;56.40;;;;;;5119252;28;20451;-70
2023/08/21 02:56:23;;;;;;;2.38;1.98;;;28.40;56.50;;;;;;5117094;28;20031;-70
2023/08/21 02:58:48;;;;;;;2.75;1.73;;;28.40;56.50;;;;;;5117547;28;20019;-70
2023/08/21 03:01:14;;;;;;;2.50;1.90;;;28.40;56.40;;;;;;5116131;28;20035;-70
2023/08/21 03:03:39;;;;;;;2.40;1.80;;;28.40;56.50;;;;;;5117562;28;20475;-70
2023/08/21 03:06:05;;;;;;;2.28;1.80;;;28.40;56.40;;;;;;5116930;28;20027;-70
2023/08/21 03:08:31;;;;;;;2.35;1.80;;;28.40;57.00;;;;;;5119147;28;20047;-70
2023/08/21 03:10:57;;;;;;;2.83;2.03;;;28.40;56.40;;;;;;5117644;28;20106;-70
2023/08/21 03:13:22;;;;;;;2.45;1.90;;;28.40;56.40;;;;;;5117132;28;20027;-69
2023/08/21 03:15:48;;;;;;;3.20;2.20;;;28.40;56.50;;;;;;5117591;28;20352;-70
2023/08/21 03:18:13;;;;;;;2.60;1.98;;;28.40;56.40;;;;;;5116868;28;20031;-70
2023/08/21 03:20:46;;;;;;;2.75;2.10;;;28.30;56.40;;;;;;5118475;28;20387;-71
2023/08/21 03:23:13;;;;;;;2.42;1.92;;;28.30;56.90;;;;;;5119111;28;20771;-70
2023/08/21 03:25:39;;;;;;;2.72;1.90;;;28.30;56.40;;;;;;5119262;28;20027;-70
2023/08/21 03:28:04;;;;;;;2.63;2.10;;;28.30;56.40;;;;;;5117621;28;20028;-70
2023/08/21 03:30:30;;;;;;;2.50;1.90;;;28.30;56.40;;;;;;5117212;28;20447;-69
2023/08/21 03:32:56;;;;;;;2.53;2.00;;;28.40;56.40;;;;;;5120318;27;20510;-70
2023/08/21 03:35:21;;;;;;;2.45;1.88;;;28.40;56.40;;;;;;5104574;27;20076;-70
2023/08/21 03:37:47;;;;;;;2.70;2.00;;;28.30;56.40;;;;;;5122545;27;20027;-70
2023/08/21 03:40:12;;;;;;;2.70;1.92;;;28.40;56.60;;;;;;5121463;27;20075;-71
2023/08/21 03:42:38;;;;;;;3.10;2.13;;;28.30;56.40;;;;;;5121943;27;20031;-70
2023/08/21 03:45:04;;;;;;;2.40;1.80;;;28.30;56.40;;;;;;5121438;27;20386;-70
2023/08/21 03:47:30;;;;;;;2.35;1.77;;;28.30;56.40;;;;;;5123705;27;20051;-70
2023/08/21 03:49:56;;;;;;;3.17;2.40;;;28.30;56.40;;;;;;5122051;27;20085;-68
2023/08/21 03:52:22;;;;;;;2.80;2.05;;;28.30;56.40;;;;;;5120047;27;20471;-68
2023/08/21 03:54:47;;;;;;;2.80;2.10;;;28.30;56.40;;;;;;5121502;27;20068;-69
2023/08/21 03:57:13;;;;;;;2.30;1.90;;;28.30;56.40;;;;;;5121656;27;20102;-69
2023/08/21 03:59:38;;;;;;;2.88;2.10;;;28.30;56.40;;;;;;5121389;27;20028;-69
2023/08/21 04:02:04;;;;;;;2.45;1.90;;;28.30;56.40;;;;;;5119237;27;20084;-67
2023/08/21 04:04:30;;;;;;;2.33;1.73;;;28.30;56.40;;;;;;5122370;27;20039;-69
2023/08/21 04:06:56;;;;;;;2.65;1.88;;;28.30;56.40;;;;;;5119317;27;20497;-69
2023/08/21 04:09:21;;;;;;;2.60;2.00;;;28.30;56.40;;;;;;5123269;27;20126;-65
2023/08/21 04:11:47;;;;;;;2.97;2.10;;;28.30;56.40;;;;;;5123550;27;20459;-65
2023/08/21 04:14:12;;;;;;;2.50;2.00;;;28.30;56.40;;;;;;5124275;27;20039;-65
2023/08/21 04:16:38;;;;;;;2.75;1.90;;;28.30;56.40;;;;;;5122019;27;20027;-64
2023/08/21 04:19:05;;;;;;;2.83;2.10;;;28.30;56.40;;;;;;5121032;27;20017;-64
2023/08/21 04:21:30;;;;;;;2.40;1.92;;;28.30;56.40;;;;;;5123184;27;20043;-64
2023/08/21 04:23:56;;;;;;;2.53;1.90;;;28.30;56.40;;;;;;5121740;27;20902;-64
2023/08/21 04:26:22;;;;;;;2.97;2.15;;;28.30;56.40;;;;;;5120907;27;20200;-64
2023/08/21 04:28:47;;;;;;;2.90;2.10;;;28.30;56.40;;;;;;5121322;27;20471;-64
2023/08/21 04:31:13;;;;;;;2.70;2.00;;;28.30;56.40;;;;;;5121270;27;20042;-64
2023/08/21 04:33:39;;;;;;;2.40;2.00;;;28.30;56.40;;;;;;5120967;27;20030;-64
2023/08/21 04:36:05;;;;;;;2.42;1.90;;;28.30;56.40;;;;;;5121638;27;20088;-64
2023/08/21 04:38:30;;;;;;;2.60;2.00;;;28.30;56.40;;;;;;5118923;27;20019;-64
2023/08/21 04:40:56;;;;;;;2.63;1.80;;;28.30;56.40;;;;;;5121090;27;20587;-64
2023/08/21 04:43:21;;;;;;;2.60;1.90;;;28.30;56.40;;;;;;5120336;27;20024;-64
2023/08/21 04:45:52;;;;;;;2.63;2.10;;;28.30;56.40;;;;;;5121358;27;20394;-64
2023/08/21 04:48:19;;;;;;;2.40;1.80;;;28.30;56.40;;;;;;5119560;27;20031;-64
2023/08/21 04:50:45;;;;;;;2.40;1.77;;;28.30;56.40;;;;;;5120974;27;20491;-64
2023/08/21 04:53:11;;;;;;;2.20;1.67;;;28.30;56.40;;;;;;5119320;27;20065;-65
2023/08/21 04:55:36;;;;;;;2.45;1.92;;;28.30;56.40;;;;;;5119759;27;20055;-64
2023/08/21 04:58:02;;;;;;;2.30;1.77;;;28.30;56.90;;;;;;5119203;27;20457;-69
2023/08/21 05:00:28;;;;;;;2.38;1.70;;;28.30;56.40;;;;;;5120396;27;20031;-70
2023/08/21 05:02:53;;;;;;;2.50;1.83;;;28.20;56.30;;;;;;5119531;27;20055;-70
2023/08/21 05:05:20;;;;;;;2.63;1.98;;;28.30;56.40;;;;;;5118426;27;20040;-69
2023/08/21 05:07:46;;;;;;;2.35;1.90;;;28.30;56.40;;;;;;5120191;27;20034;-70
2023/08/21 05:10:11;;;;;;;2.67;1.92;;;28.20;56.30;;;;;;5121166;27;20023;-69
2023/08/21 05:12:37;;;;;;;2.20;1.73;;;28.20;56.30;;;;;;5121042;27;20418;-70
2023/08/21 05:15:03;;;;;;;2.33;1.70;;;28.20;56.40;;;;;;5118403;27;20108;-69
2023/08/21 05:17:29;;;;;;;2.28;1.70;;;28.20;56.30;;;;;;5119937;27;20024;-69
2023/08/21 05:19:55;;;;;;;2.60;1.90;;;28.20;56.30;;;;;;5119619;27;20023;-64
2023/08/21 05:22:20;;;;;;;2.25;1.80;;;28.20;56.80;;;;;;5120310;27;20016;-64
2023/08/21 05:24:46;;;;;;;2.50;1.95;;;28.20;56.30;;;;;;5120075;27;20022;-64
2023/08/21 05:27:11;;;;;;;2.67;1.90;;;28.20;56.30;;;;;;5120501;27;20119;-64
2023/08/21 05:29:37;;;;;;;2.70;2.08;;;28.20;56.30;;;;;;5120007;27;20023;-64
2023/08/21 05:32:03;;;;;;;2.35;1.80;;;28.20;56.40;;;;;;5119554;27;20479;-65
2023/08/21 05:34:28;;;;;;;2.28;1.90;;;28.20;56.40;;;;;;5118741;27;20098;-65
2023/08/21 05:36:54;;;;;;;2.22;1.90;;;28.20;56.30;;;;;;5118744;27;20062;-64
2023/08/21 05:39:20;;;;;;;2.38;1.90;;;28.20;56.30;;;;;;5118741;27;20101;-64
2023/08/21 05:41:46;;;;;;;2.20;1.65;;;28.20;56.30;;;;;;5120093;27;20467;-65
2023/08/21 05:44:11;;;;;;;2.08;1.73;;;28.20;56.40;;;;;;5119172;27;20095;-64
2023/08/21 05:46:38;;;;;;;2.63;1.70;;;28.20;56.30;;;;;;5118168;27;20042;-65
2023/08/21 05:49:03;;;;;;;2.28;1.80;;;28.20;56.30;;;;;;5119685;27;20035;-64
2023/08/21 05:51:29;;;;;;;2.20;1.70;;;28.20;56.30;;;;;;5119304;27;20031;-64
2023/08/21 05:53:55;;;;;;;2.65;2.17;;;28.20;56.40;;;;;;5120400;27;20037;-65
2023/08/21 05:56:22;;;;;;;2.28;1.83;;;28.20;56.30;;;;;;5118566;27;20026;-66
2023/08/21 05:58:47;;;;;;;2.58;1.95;;;28.20;56.40;;;;;;5117362;27;20494;-66
2023/08/21 06:01:13;;;;;;;2.75;2.03;;;28.20;56.30;;;;;;5117920;27;20035;-66
2023/08/21 06:03:39;;;;;;;2.22;1.77;;;28.20;56.40;;;;;;5118290;27;20059;-66
2023/08/21 06:06:05;;;;;;;2.78;2.08;;;28.20;56.30;;;;;;5117177;27;20031;-66
2023/08/21 06:08:31;;;;;;;2.22;1.80;;;28.20;56.40;;;;;;5121610;27;20336;-69
2023/08/21 06:10:57;;;;;;;2.50;1.80;;;28.20;56.40;;;;;;5101900;27;20088;-70
2023/08/21 06:13:23;;;;;;;2.75;2.00;;;28.20;56.40;;;;;;5119547;27;20031;-69
2023/08/21 06:15:48;;;;;;;2.63;1.90;;;28.20;56.40;;;;;;5119961;27;20024;-69
2023/08/21 06:18:15;;;;;;;2.60;1.77;;;28.20;56.40;;;;;;5118108;27;20026;-69
2023/08/21 06:20:43;;;;;;;2.38;1.90;;;28.20;56.40;;;;;;5117411;27;20035;-69
2023/08/21 06:23:10;;;;;;;2.50;1.83;;;28.10;56.30;;;;;;5117434;27;20035;-69
2023/08/21 06:25:36;;;;;;;2.78;2.00;;;28.20;56.40;;;;;;5119587;27;20490;-69
2023/08/21 06:28:02;;;;;;;2.42;1.85;;;28.20;56.40;;;;;;5120187;27;20027;-65
2023/08/21 06:30:27;;;;;;;2.28;1.88;;;28.20;56.40;;;;;;5116375;27;20070;-68
2023/08/21 06:32:54;;;;;;;2.17;1.70;;;28.20;56.40;;;;;;5115800;27;20495;-67
2023/08/21 06:35:20;;;;;;;2.33;1.90;;;28.10;56.30;;;;;;5099065;27;20031;-68
2023/08/21 06:37:45;;;;;;;2.80;2.08;;;28.10;56.30;;;;;;5119472;27;20031;-67
2023/08/21 06:40:11;;;;;;;2.58;1.90;;;28.10;56.30;;;;;;5118972;27;20482;-67
2023/08/21 06:42:37;;;;;;;2.30;1.90;;;28.20;56.40;;;;;;5116354;27;20095;-67
2023/08/21 06:45:04;;;;;;;2.55;1.80;;;28.10;56.30;;;;;;5118899;27;20027;-68
2023/08/21 06:47:30;;;;;;;2.60;2.00;;;28.10;56.30;;;;;;5117833;27;20023;-68
2023/08/21 06:49:55;;;;;;;2.65;2.00;;;28.10;56.30;;;;;;5115638;27;20046;-69
2023/08/21 06:52:21;;;;;;;2.25;1.95;;;28.10;56.30;;;;;;5119947;27;20020;-68
2023/08/21 06:54:46;;;;;;;2.30;1.90;;;28.10;56.30;;;;;;5118312;28;20092;-68
2023/08/21 06:57:12;;;;;;;2.25;1.80;;;28.10;56.30;;;;;;5116608;28;20231;-68
2023/08/21 06:59:38;;;;;;;2.35;1.90;;;28.10;56.30;;;;;;5116080;28;20020;-68
2023/08/21 07:02:03;;;;;;;2.63;1.90;;;28.10;56.30;;;;;;5117008;28;20028;-68
2023/08/21 07:04:29;;;;;;;2.35;1.85;;;28.10;56.30;;;;;;5118952;28;20075;-68
2023/08/21 07:06:55;;;;;;;2.30;1.65;;;28.10;56.30;;;;;;5103183;27;20036;-67
2023/08/21 07:09:20;;;;;;;2.50;1.88;;;28.10;56.40;;;;;;5120480;27;20379;-68
2023/08/21 07:11:46;;;;;;;2.47;1.85;;;28.10;56.40;;;;;;5120989;27;20111;-69
2023/08/21 07:14:13;;;;;;;2.10;1.60;;;28.10;56.40;;;;;;5121225;27;20027;-68
2023/08/21 07:16:39;;;;;;;2.20;1.70;;;28.10;56.40;;;;;;5120687;27;20538;-69
2023/08/21 07:19:05;;;;;;;2.28;1.75;;;28.10;56.90;;;;;;5122057;27;20090;-64
2023/08/21 07:21:31;;;;;;;2.28;1.80;;;28.10;56.40;;;;;;5122616;27;20165;-62
2023/08/21 07:23:56;;;;;;;2.28;1.70;;;28.10;56.40;;;;;;5123091;27;20084;-64
2023/08/21 07:26:22;;;;;;;2.72;1.90;;;28.10;56.40;;;;;;5107411;27;20031;-64
2023/08/21 07:28:48;;;;;;;1.80;1.60;;;28.10;56.40;;;;;;5123935;27;20390;-64
2023/08/21 07:31:13;;;;;;;2.70;2.00;;;28.10;56.40;;;;;;5122331;27;20046;-63
2023/08/21 07:33:39;;;;;;;3.03;2.10;;;28.10;56.40;;;;;;5121332;27;20073;-64
2023/08/21 07:36:05;;;;;;;2.67;2.05;;;28.10;56.40;;;;;;5121807;27;20418;-63
2023/08/21 07:38:31;;;;;;;2.50;1.80;;;28.10;56.40;;;;;;5124040;27;20035;-66
2023/08/21 07:41:08;;;;;;;2.47;1.83;;;28.10;56.40;;;;;;5122117;27;20435;-65
2023/08/21 07:43:34;;;;;;;2.40;1.80;;;28.10;56.40;;;;;;5121143;27;20495;-66
2023/08/21 07:46:04;;;;;;;2.28;1.65;;;28.10;56.40;;;;;;5123006;27;20043;-66
2023/08/21 07:48:30;;;;;;;2.40;1.80;;;28.10;56.40;;;;;;5121637;27;20027;-66
2023/08/21 07:50:55;;;;;;;2.40;1.80;;;28.10;56.90;;;;;;5120649;27;20027;-66
2023/08/21 07:53:22;;;;;;;2.45;1.80;;;28.10;56.40;;;;;;5121663;27;20019;-66
2023/08/21 07:55:47;;;;;;;2.20;1.70;;;28.10;56.40;;;;;;5121542;27;20136;-65
2023/08/21 07:58:13;;;;;;;2.25;1.80;;;28.10;56.40;;;;;;5121620;27;20126;-65
2023/08/21 08:00:39;;;;;;;2.42;1.85;;;28.10;56.40;;;;;;5119935;27;20028;-65
2023/08/21 08:03:05;;;;;;;2.10;1.80;;;28.10;56.40;;;;;;5120103;27;20360;-67
2023/08/21 08:05:31;;;;;;;2.38;1.60;;;28.10;56.40;;;;;;5120261;27;20467;-66
2023/08/21 08:07:57;;;;;;;2.20;1.70;;;28.10;56.40;;;;;;5123646;27;20027;-66
2023/08/21 08:10:24;;;;;;;2.10;1.75;;;28.10;56.40;;;;;;5122286;27;20443;-66
2023/08/21 08:12:50;;;;;;;1.80;1.52;;;28.10;56.40;;;;;;5122652;27;20027;-65
2023/08/21 08:15:16;;;;;;;2.25;1.83;;;28.10;56.40;;;;;;5118309;27;20086;-66
2023/08/21 08:17:42;;;;;;;2.30;1.90;;;28.10;56.40;;;;;;5121708;27;20031;-66
2023/08/21 08:20:08;;;;;;;2.40;1.85;;;28.10;56.50;;;;;;5120206;27;20031;-65
2023/08/21 08:22:33;;;;;;;2.10;1.70;;;28.10;56.40;;;;;;5119439;27;20367;-66
2023/08/21 08:24:59;;;;;;;2.22;1.67;;;28.10;56.40;;;;;;5122681;27;20098;-65
2023/08/21 08:27:25;;;;;;;2.30;1.73;;;28.10;56.40;;;;;;5122051;27;20062;-66
2023/08/21 08:29:50;;;;;;;2.20;1.80;;;28.10;56.40;;;;;;5121854;27;20363;-69
2023/08/21 08:32:16;;;;;;;1.90;1.60;;;28.10;56.50;;;;;;5121104;27;20052;-69
2023/08/21 08:34:41;;;;;;;2.25;1.83;;;28.10;56.50;;;;;;5115982;27;20435;-69
2023/08/21 08:37:07;;;;;;;2.50;1.77;;;28.10;56.50;;;;;;5120272;27;20032;-69
2023/08/21 08:39:33;;;;;;;2.20;1.65;;;28.10;56.50;;;;;;5123868;27;20459;-69
2023/08/21 08:42:03;;;;;;;2.00;1.60;;;28.10;56.50;;;;;;5119627;27;20035;-69
2023/08/21 08:44:30;;;;;;;1.70;1.48;;;28.10;56.50;;;;;;5121039;27;20447;-69
2023/08/21 08:46:56;;;;;;;2.20;1.75;;;28.00;56.40;;;;;;5120597;27;20471;-69
2023/08/21 08:49:22;;;;;;;2.33;1.95;;;28.10;56.50;;;;;;5123807;27;20098;-69
2023/08/21 08:51:51;;;;;;;1.90;1.50;;;28.10;56.50;;;;;;5118831;27;20506;-69
2023/08/21 08:54:19;;;;;;;2.10;1.60;;;28.00;56.50;;;;;;5118160;27;20031;-69
2023/08/21 08:56:44;;;;;;;2.50;1.70;;;28.00;56.40;;;;;;5121618;27;20026;-69
2023/08/21 08:59:10;;;;;;;1.90;1.60;;;28.10;56.50;;;;;;5119718;27;20479;-69
2023/08/21 09:01:36;;;;;;;2.30;1.60;;;28.10;56.70;;;;;;5121244;27;20150;-69
2023/08/21 09:04:03;;;;;;;2.10;1.60;;;28.10;56.50;;;;;;5119772;27;20028;-69
2023/08/21 09:06:29;;;;;;;2.10;1.60;;;28.10;56.50;;;;;;5120152;27;20036;-69
2023/08/21 09:08:56;;;;;;;2.15;1.65;;;28.00;56.40;;;;;;5120690;27;20023;-69
2023/08/21 09:11:22;;;;;;;2.10;1.60;;;28.10;57.00;;;;;;5119538;27;20024;-69
2023/08/21 09:13:52;;;;;;;2.50;1.90;;;28.00;57.00;;;;;;5119923;27;20039;-69
2023/08/21 09:16:21;;;;;;;1.75;1.45;;;28.00;56.50;;;;;;5119887;27;20024;-69
2023/08/21 09:18:56;;;;;;;1.90;1.60;;;28.10;57.10;;;;;;5121392;27;20029;-69
2023/08/21 09:21:23;;;;;;;1.70;1.42;;;28.10;56.50;;;;;;5118004;27;20050;-68
2023/08/21 09:23:59;;;;;;;2.08;1.70;;;28.00;56.50;;;;;;5118672;27;20069;-69
2023/08/21 09:26:26;;;;;;;1.90;1.70;;;28.10;56.60;;;;;;5121820;27;20027;-69
2023/08/21 09:28:52;;;;;;;2.20;1.60;;;28.00;56.50;;;;;;5119555;27;20077;-69
2023/08/21 09:31:30;;;;;;;2.00;1.60;;;28.10;56.60;;;;;;5119623;27;20028;-69
2023/08/21 09:34:00;;;;;;;1.75;1.48;;;28.10;56.60;;;;;;5119111;27;20024;-69
2023/08/21 09:36:27;;;;;;;2.10;1.70;;;28.10;57.10;;;;;;5118512;27;20024;-69
2023/08/21 09:38:52;;;;;;;1.95;1.60;;;28.00;56.50;;;;;;5119846;27;20015;-63
2023/08/21 09:41:22;;;;;;;2.15;1.67;;;28.00;56.50;;;;;;5118731;27;20076;-62
2023/08/21 09:43:48;;;;;;;2.22;1.73;;;28.10;56.60;;;;;;5119325;27;20494;-63
2023/08/21 09:46:18;;;;;;;2.25;1.60;;;28.10;56.60;;;;;;5119027;27;20490;-62
2023/08/21 09:48:46;;;;;;;2.17;1.80;;;28.00;56.50;;;;;;5120032;27;20031;-63
2023/08/21 09:51:12;;;;;;;2.38;1.80;;;28.10;56.60;;;;;;5118246;27;20051;-63
2023/08/21 09:53:39;;;;;;;2.55;1.90;;;28.10;56.60;;;;;;5119073;27;20445;-62
2023/08/21 09:56:05;;;;;;;2.42;1.90;;;28.10;56.60;;;;;;5119374;27;20102;-64
2023/08/21 09:58:32;;;;;;;2.13;1.63;;;28.00;56.50;;;;;;5119797;27;20031;-64
2023/08/21 10:00:59;;;;;;;2.13;1.70;;;28.10;56.60;;;;;;5117816;27;20027;-69
2023/08/21 10:03:25;;;;;;;2.17;1.70;;;28.10;56.60;;;;;;5121874;27;20028;-69
2023/08/21 10:05:53;;;;;;;2.28;1.70;;;28.10;56.60;;;;;;5115196;27;20095;-70
2023/08/21 10:08:24;;;;;;;2.17;1.77;;;28.10;56.60;;;;;;5118728;27;20035;-70
2023/08/21 10:10:50;;;;;;;2.17;1.55;;;28.00;56.60;;;;;;5119645;27;20387;-70
2023/08/21 10:13:17;;;;;;;2.17;1.60;;;28.00;56.60;;;;;;5118119;27;20031;-70
2023/08/21 10:15:43;;;;;;;2.15;1.77;;;28.00;56.60;;;;;;5121031;27;20068;-70
2023/08/21 10:18:23;;;;;;;1.95;1.60;;;28.10;56.60;;;;;;5119241;27;20387;-70
2023/08/21 10:20:49;;;;;;;2.20;1.85;;;28.10;56.70;;;;;;5119039;27;20127;-69
2023/08/21 10:23:37;;;;;;;3.22;1.90;;;28.10;56.60;;;;;;5118135;27;20110;-69
2023/08/21 10:26:06;;;;;;;2.10;1.67;;;28.10;56.70;;;;;;5118078;27;20478;-70
2023/08/21 10:28:51;;;;;;;;;;;28.10;56.70;;;;;;5120439;27;20049;-70
2023/08/21 10:31:38;;;;;;;2.17;1.70;;;28.10;56.70;;;;;;5118145;27;19911;-70
2023/08/21 10:34:08;;;;;;;2.40;1.77;;;28.10;56.70;;;;;;5117042;27;20399;-70
2023/08/21 10:36:40;;;;;;;2.13;1.70;;;28.10;56.70;;;;;;5117079;27;20027;-70
2023/08/21 10:39:22;;;;;;;2.45;1.90;;;28.10;56.70;;;;;;5118688;27;20828;-70
2023/08/21 10:42:13;;;;;;;2.30;1.90;;;28.10;56.70;;;;;;5116127;27;20046;-70
2023/08/21 10:44:57;;;;;;;2.30;1.85;;;28.10;56.70;;;;;;5116075;27;20546;-70
2023/08/21 10:47:28;;;;;;;2.40;1.92;;;28.10;56.70;;;;;;5118448;27;20039;-70
2023/08/21 10:50:03;;;;;;;2.30;1.80;;;28.10;56.70;;;;;;5116345;27;20440;-66
2023/08/21 10:52:47;;;;;;;2.10;1.70;;;28.10;56.70;;;;;;5116176;27;20075;-65
2023/08/21 10:55:15;;;;;;;2.20;1.60;;;28.10;56.70;;;;;;5118756;28;20031;-66
2023/08/21 10:57:43;;;;;;;2.28;1.83;;;28.10;56.70;;;;;;5118561;28;20034;-66
2023/08/21 11:00:13;;;;;;;2.33;1.80;;;28.10;56.70;;;;;;5118926;28;20043;-66
2023/08/21 11:02:41;;;;;;;2.28;1.88;;;28.10;56.80;;;;;;5119270;28;20023;-66
2023/08/21 11:05:08;;;;;;;2.22;1.75;;;28.10;56.80;;;;;;5117770;28;20493;-65
2023/08/21 11:07:51;;;;;;;2.50;1.90;;;28.10;56.80;;;;;;5116052;28;20035;-66
2023/08/21 11:10:21;;;;;;;2.15;1.70;;;28.10;56.80;;;;;;5118246;28;20034;-69
2023/08/21 11:12:55;;;;;;;2.45;1.88;;;28.10;56.80;;;;;;5118323;28;20072;-69
2023/08/21 11:15:21;;;;;;;2.35;1.70;;;28.10;56.80;;;;;;5117904;28;20031;-70
2023/08/21 11:18:05;;;;;;;2.05;1.80;;;28.10;56.80;;;;;;5132431;27;20028;-70
2023/08/21 11:20:35;;;;;;;1.83;1.60;;;28.10;56.80;;;;;;5115028;28;20027;-70
2023/08/21 11:23:06;;;;;;;2.15;1.60;;;28.10;56.80;;;;;;5116541;28;20386;-69
2023/08/21 11:25:33;;;;;;;2.40;1.95;;;28.10;56.80;;;;;;5117747;28;20023;-70
2023/08/21 11:27:59;;;;;;;2.40;1.80;;;28.10;56.80;;;;;;5121107;28;20364;-70
2023/08/21 11:30:25;;;;;;;2.38;1.90;;;28.10;56.80;;;;;;5115867;28;20461;-70
2023/08/21 11:33:06;;;;;;;2.50;1.88;;;28.10;56.80;;;;;;5117527;28;20020;-70
2023/08/21 11:35:32;;;;;;;2.30;1.90;;;28.10;56.80;;;;;;5117003;28;20028;-70
2023/08/21 11:37:57;;;;;;;2.17;1.73;;;28.10;56.80;;;;;;5100673;28;20030;-70
2023/08/21 11:40:23;;;;;;;2.30;1.85;;;28.10;56.80;;;;;;5117001;28;20032;-70
2023/08/21 11:42:51;;;;;;;2.78;1.80;;;28.10;56.80;;;;;;5100528;28;20390;-69
2023/08/21 11:45:20;;;;;;;2.25;1.65;;;28.10;56.80;;;;;;5107352;28;20032;-69
2023/08/21 11:47:46;;;;;;;1.90;1.60;;;28.10;56.80;;;;;;5118737;28;20069;-70
2023/08/21 11:50:15;;;;;;;2.13;1.80;;;28.10;56.80;;;;;;5120231;28;20043;-69
2023/08/21 11:52:42;;;;;;;2.40;1.80;;;28.10;56.80;;;;;;5115882;28;20747;-69
2023/08/21 11:55:12;;;;;;;2.40;1.80;;;28.10;56.80;;;;;;5112341;27;20070;-69
2023/08/21 11:57:51;;;;;;;1.95;1.65;;;28.10;56.80;;;;;;5121595;27;20027;-69
2023/08/21 12:00:22;;;;;;;1.90;1.48;;;28.10;56.80;;;;;;5122588;27;20023;-69
2023/08/21 12:02:59;;;;;;;1.85;1.65;;;28.10;56.90;;;;;;5121182;27;20036;-68
2023/08/21 12:05:29;;;;;;;2.65;1.90;;;28.10;56.80;;;;;;5124379;27;20077;-68
2023/08/21 12:07:55;;;;;;;2.38;1.70;;;28.10;56.80;;;;;;5112264;27;20011;-68
2023/08/21 12:10:28;;;;;;;2.15;1.73;;;28.20;56.90;;;;;;5120053;27;20020;-68
2023/08/21 12:12:56;;;;;;;2.00;1.60;;;28.20;56.90;;;;;;5120767;27;20372;-68
2023/08/21 12:15:22;;;;;;;2.13;1.65;;;28.20;56.90;;;;;;5122692;27;20046;-67
2023/08/21 12:17:47;;;;;;;1.65;1.40;;;28.20;56.90;;;;;;5120102;27;20054;-68
2023/08/21 12:20:13;;;;;;;2.13;1.77;;;28.20;56.90;;;;;;5120639;27;20040;-62
2023/08/21 12:22:39;;;;;;;2.25;1.77;;;28.20;56.90;;;;;;5119036;27;20026;-65
2023/08/21 12:25:07;;;;;;;2.20;1.80;;;28.20;56.90;;;;;;5120371;27;20110;-63
2023/08/21 12:27:32;;;;;;;2.15;1.70;;;28.20;57.10;;;;;;5122441;27;20107;-64
2023/08/21 12:29:58;;;;;;;2.28;1.70;;;28.20;56.90;;;;;;5122655;27;20106;-63
2023/08/21 12:32:23;;;;;;;1.90;1.60;;;28.20;56.90;;;;;;5122528;27;20110;-64
2023/08/21 12:34:49;;;;;;;2.20;1.67;;;28.20;56.90;;;;;;5119688;27;20092;-63
2023/08/21 12:37:15;;;;;;;1.90;1.50;;;28.20;56.90;;;;;;5121180;27;20070;-64
2023/08/21 12:39:40;;;;;;;2.03;1.70;;;28.20;56.90;;;;;;5118701;27;20016;-64
2023/08/21 12:42:07;;;;;;;2.05;1.65;;;28.20;56.90;;;;;;5101785;27;20446;-64
2023/08/21 12:44:33;;;;;;;2.30;1.85;;;28.20;56.90;;;;;;5122511;27;20118;-63
2023/08/21 12:46:59;;;;;;;2.22;1.63;;;28.20;56.90;;;;;;5120310;27;20031;-63